Winston Salem, NC (27130)

8:54 AM EDT on September 30, 2014 (GMT -0400)
Winston-Salem South | Change Station
CLOSE
Current Station
Personal Weather Station
Location: Winston-Salem, NC
Elevation: 833 ft
Nearby Weather Stations
Active Advisory: Dense Fog Advisory

Elev 833 ft 36.03 °N, 80.29 °W | Updated 3 seconds ago

Fog
Fog
61.5 °F
Feels Like 61.5 °F
N
0.0
Wind Variable Wind from NE
Gusts 0.0 mph

Today
High -- | Low -- °F
--% Chance of Precip.
Yesterday
High -- | Low -- °F
Precip. -- in
7:15 AM 7:06 PM
Waxing Crescent, 36% visible
Pressure 29.97 in
Visibility 2.0 miles
Clouds Overcast 200 ft
Dew Point 61 °F
Humidity 98%
Rainfall 0.00 in
Snow Depth Not available.
UV 0 out of 12
Pollen 4.50 out of 12
Ozone Good
PM2.5 Moderate
Flu Activity Not available.
SPECI KINT 301249Z 28003KT 2SM BR OVC002 16/16 A2997 RMK AO2

More Conditions Fewer Conditions

Pressure 29.97 in
Visibility 2.0 miles
Clouds Overcast 200 ft
Dew Point 61 °F
Humidity 98%
Rainfall 0.00 in
Snow Depth Not available.
UV 0 out of 12
Pollen 4.50 out of 12
Ozone Good
PM2.5 Moderate
Flu Activity Not available.
SPECI KINT 301249Z 28003KT 2SM BR OVC002 16/16 A2997 RMK AO2

More Conditions Fewer Conditions

10-Day Weather Forecast

Almanac

Astronomy

Sep. 30, 2014 Rise Set
Actual Time 7:15 AM EDT 7:06 PM EDT
Civil Twilight 6:49 AM EDT 7:31 PM EDT
Nautical Twilight 6:20 AM EDT 8:01 PM EDT
Astronomical Twilight 5:50 AM EDT 8:31 PM EDT
Moon 1:13 PM EDT 11:43 PM EDT
Length of Visible Light 12h 41m
Length of Day
11h 50m
Tomorrow will be 2m 16s shorter.
Waxing Crescent, 36% of the Moon is Illuminated
Today
Waxing Crescent
Oct 1
First Quarter
Oct 8
Full
Oct 15
Last Quarter
Oct 23
New

Today's Extremes

State Highs State Lows

Community

WunderPhotos

Upload Photos

1,757,625 photos uploaded!

Nearby

Air Quality

  Air Quality AQ Index Pollutant
Yesterday Moderate
PM2.5
Yesterday Good
OZONE
Current Moderate
PM2.5
Current Good
OZONE
Tuesday Moderate
PM2.5
Tuesday Good
OZONE
Wednesday Moderate
PM2.5
Wednesday Moderate
OZONE
Thursday Moderate
PM2.5
Thursday Moderate
OZONE

Snow Depth

Station Depth Elevation
No new snow has been reported.

Earthquake Activity

City Distance Mag. Time & Date
No recent earthquake activity has been reported nearby.
Minimum magnitude displayed is 2.5.

Coastal Water Temperatures

Place Temperature
No Stations Reporting

Nearby Weather Stations